Terminal Aerodrome Forecast
Issued by NWS

Home | Current Version | Previous Version | Text Only | Print | Product List | Glossary On
Versions: 1 2 3 4 5 6 7 8 9 10 11 12 13
884
FTUS45 KRIW 252335
TAFBPI
TAF
KBPI 252335Z 2600/2624 VRB05KT P6SM -SN SCT007 OVC016
      TEMPO 2600/2602 3SM -SN
     FM260200 34009KT P6SM VCSH SCT025 BKN040
     FM260400 35007KT P6SM SCT050 BKN080
     FM260800 VRB05KT P6SM SCT080
     FM261800 VRB05KT P6SM FEW070=

USA.gov is the U.S. government's official web portal to all federal, state and local government web resources and services.